createdAt,value
2023-04-17T00:00:41.749Z,26.9
2023-04-17T00:06:35.151Z,26.6
2023-04-17T00:12:41.789Z,26.3
2023-04-17T00:18:33.507Z,24.9
2023-04-17T00:24:09.510Z,25.8
2023-04-17T00:29:31.175Z,27
2023-04-17T00:35:23.263Z,26.9
2023-04-17T00:41:14.226Z,26.6
2023-04-17T00:47:06.275Z,26.3
2023-04-17T00:52:57.928Z,24.9
2023-04-17T00:58:49.222Z,25.9
2023-04-17T01:04:44.876Z,27
2023-04-17T01:10:20.867Z,26.9
2023-04-17T01:15:56.204Z,26.5
2023-04-17T01:21:48.547Z,26.2
2023-04-17T01:27:39.739Z,24.9
2023-04-17T01:33:31.259Z,26
2023-04-17T01:39:07.801Z,27.1
2023-04-17T01:44:58.903Z,26.9
2023-04-17T01:50:35.460Z,26.6
2023-04-17T01:56:27.556Z,26.2
2023-04-17T02:02:03.570Z,24.9
2023-04-17T02:07:40.978Z,26
2023-04-17T02:13:33.795Z,27.1
2023-04-17T02:19:09.796Z,26.9
2023-04-17T02:24:46.025Z,26.6
2023-04-17T02:30:38.223Z,26.3
2023-04-17T02:36:29.390Z,25
2023-04-17T02:42:20.581Z,26.1
2023-04-17T02:48:13.301Z,27.1
2023-04-17T02:53:49.309Z,26.9
2023-04-17T02:59:40.590Z,26.6
2023-04-17T03:05:34.583Z,26.3
2023-04-17T03:11:26.356Z,25
2023-04-17T03:17:20.005Z,26.3
2023-04-17T03:23:12.556Z,27.1
2023-04-17T03:28:48.006Z,26.9
2023-04-17T03:34:42.083Z,26.6
2023-04-17T03:40:19.537Z,26.3
2023-04-17T03:45:55.587Z,25.1
2023-04-17T03:51:47.126Z,26.1
2023-04-17T03:57:23.772Z,27.1
2023-04-17T04:03:00.576Z,26.9
2023-04-17T04:08:52.016Z,26.6
2023-04-17T04:14:44.646Z,26.3
2023-04-17T04:20:20.576Z,25.3
2023-04-17T04:25:57.713Z,25.8
2023-04-17T04:31:51.146Z,27.1
2023-04-17T04:37:11.899Z,27
2023-04-17T04:42:51.176Z,26.7
2023-04-17T04:48:13.032Z,26.4
2023-04-17T04:53:33.175Z,25.9
2023-04-17T04:59:08.065Z,25.1
2023-04-17T05:04:47.947Z,27
2023-04-17T05:10:24.305Z,27.1
2023-04-17T05:16:01.455Z,26.8
2023-04-17T05:21:54.648Z,26.6
2023-04-17T05:27:45.591Z,26.3
2023-04-17T05:33:21.603Z,25
2023-04-17T05:39:01.948Z,26.9
2023-04-17T05:44:37.436Z,27.2
2023-04-17T05:50:13.426Z,26.9
2023-04-17T05:55:50.480Z,26.7
2023-04-17T06:01:41.003Z,26.4
2023-04-17T06:07:21.524Z,25.1
2023-04-17T06:13:00.666Z,26.8
2023-04-17T06:18:36.730Z,27.3
2023-04-17T06:24:13.856Z,27.1
2023-04-17T06:29:50.255Z,26.7
2023-04-17T06:35:35.201Z,26.4
2023-04-17T06:41:10.632Z,25.1
2023-04-17T06:46:32.689Z,26.3
2023-04-17T06:52:08.466Z,27.2
2023-04-17T06:57:43.598Z,27.1
2023-04-17T07:03:25.159Z,26.8
2023-04-17T07:08:46.424Z,26.5
2023-04-17T07:14:06.896Z,25.5
2023-04-17T07:19:45.438Z,25.7
2023-04-17T07:25:21.898Z,27.3
2023-04-17T07:30:58.006Z,27.2
2023-04-17T07:36:35.667Z,26.9
2023-04-17T07:42:14.745Z,26.6
2023-04-17T07:47:38.552Z,26.3
2023-04-17T07:53:18.611Z,26
2023-04-17T07:58:57.578Z,25.1
2023-04-17T08:04:20.660Z,25.4
2023-04-17T08:10:00.537Z,26.5
2023-04-17T08:15:32.068Z,26.4
2023-04-17T08:21:08.751Z,26.2
2023-04-17T08:26:48.914Z,26
2023-04-17T08:32:43.119Z,25.8
2023-04-17T08:38:36.983Z,25.4
2023-04-17T08:44:15.141Z,25.2
2023-04-17T08:50:07.847Z,24.6
2023-04-17T08:55:58.932Z,26.3
2023-04-17T09:01:20.901Z,26.4
2023-04-17T09:07:00.163Z,26.2
2023-04-17T09:12:35.900Z,26
2023-04-17T09:18:14.145Z,25.8
2023-04-17T09:23:50.976Z,25.6
2023-04-17T09:29:11.485Z,25.3
2023-04-17T09:34:33.422Z,25
2023-04-17T09:40:12.424Z,24.4
2023-04-17T09:46:04.127Z,25.9
2023-04-17T09:51:57.562Z,26.4
2023-04-17T09:57:34.775Z,26.2
2023-04-17T10:03:27.693Z,26
2023-04-17T10:09:20.486Z,25.8
2023-04-17T10:15:12.480Z,25.6
2023-04-17T10:21:06.564Z,25.3
2023-04-17T10:26:59.739Z,24.9
2023-04-17T10:32:54.330Z,24.3
2023-04-17T10:38:47.617Z,26.1
2023-04-17T10:44:25.442Z,26.3
2023-04-17T10:50:19.220Z,26.2
2023-04-17T10:56:10.777Z,26
2023-04-17T11:02:07.397Z,25.8
2023-04-17T11:07:45.481Z,25.6
2023-04-17T11:13:38.953Z,25.3
2023-04-17T11:19:16.583Z,24.6
2023-04-17T11:24:53.462Z,24.7
2023-04-17T11:30:29.515Z,26.3
2023-04-17T11:35:51.660Z,26.3
2023-04-17T11:41:28.538Z,26.1
2023-04-17T11:47:05.497Z,26
2023-04-17T11:52:57.730Z,25.8
2023-04-17T11:58:49.194Z,25.6
2023-04-17T12:04:43.979Z,24.4
2023-04-17T12:10:21.525Z,26.1
2023-04-17T12:16:13.399Z,26.4
2023-04-17T12:21:49.812Z,26.3
2023-04-17T12:27:41.827Z,26.1
2023-04-17T12:33:03.209Z,25.9
2023-04-17T12:38:54.562Z,25.6
2023-04-17T12:44:45.283Z,25.4
2023-04-17T12:50:38.502Z,25.1
2023-04-17T12:56:29.767Z,24.8
2023-04-17T13:02:22.745Z,24.6
2023-04-17T13:08:00.343Z,24.3
2023-04-17T13:13:35.936Z,24
2023-04-17T13:19:30.255Z,23.8
2023-04-17T13:25:21.495Z,23.6
2023-04-17T13:31:15.307Z,23.3
2023-04-17T13:37:10.490Z,23.1
2023-04-17T13:42:47.322Z,23
2023-04-17T13:48:41.110Z,22.8
2023-04-17T13:54:34.256Z,22.7
2023-04-17T14:00:09.948Z,22.6
2023-04-17T14:05:50.920Z,22.5
2023-04-17T14:11:46.323Z,22.4
2023-04-17T14:17:37.541Z,22.3
2023-04-17T14:23:06.058Z,22
2023-04-17T14:28:43.011Z,21.9
2023-04-17T14:34:19.212Z,21.9
2023-04-17T14:40:15.872Z,21.8
2023-04-17T14:46:09.407Z,21.8
2023-04-17T14:52:12.282Z,21.7
2023-04-17T14:58:03.011Z,21.7
2023-04-17T15:03:56.785Z,21.6
2023-04-17T15:09:32.769Z,21.7
2023-04-17T15:15:24.714Z,21.6
2023-04-17T15:21:17.274Z,21.6
2023-04-17T15:27:08.599Z,21.6
2023-04-17T15:32:59.727Z,21.5
2023-04-17T15:38:51.371Z,21.5
2023-04-17T15:44:44.540Z,21.5
2023-04-17T15:51:01.137Z,21.5
2023-04-17T15:56:55.458Z,21.5
2023-04-17T16:02:46.985Z,21.5
2023-04-17T16:08:24.393Z,21.5
2023-04-17T16:14:16.641Z,21.5
2023-04-17T16:20:08.109Z,21.5
2023-04-17T16:25:59.365Z,21.5
2023-04-17T16:31:36.743Z,21.4
2023-04-17T16:37:17.899Z,21.4
2023-04-17T16:42:55.204Z,21.4
2023-04-17T16:49:26.563Z,21.3
2023-04-17T16:55:19.413Z,21.3
2023-04-17T17:01:10.184Z,21.2
2023-04-17T17:07:03.784Z,21.2
2023-04-17T17:17:44.990Z,21.1
2023-04-17T17:23:21.663Z,21.1
2023-04-17T17:29:11.684Z,21
2023-04-17T17:35:00.230Z,20.9
2023-04-17T17:40:37.000Z,20.9
2023-04-17T17:46:28.392Z,20.9
2023-04-17T17:52:22.219Z,20.9
2023-04-17T17:58:14.655Z,20.9
2023-04-17T18:03:52.278Z,20.9
2023-04-17T18:09:29.296Z,20.9
2023-04-17T18:14:50.737Z,20.9
2023-04-17T18:20:27.002Z,20.9
2023-04-17T18:26:03.080Z,20.9
2023-04-17T18:31:39.393Z,20.9
2023-04-17T18:37:34.047Z,20.9
2023-04-17T18:43:09.538Z,20.9
2023-04-17T18:48:46.695Z,22.3
2023-04-17T18:54:28.773Z,23.5
2023-04-17T19:00:05.611Z,25.3
2023-04-17T19:05:12.930Z,25.6
2023-04-17T19:11:05.704Z,25.6
2023-04-17T19:16:58.598Z,25.4
2023-04-17T19:22:51.667Z,25.3
2023-04-17T19:28:44.259Z,25.1
2023-04-17T19:34:21.976Z,24.9
2023-04-17T19:39:44.547Z,24.6
2023-04-17T19:45:51.122Z,22.9
2023-04-17T19:51:44.767Z,25.3
2023-04-17T19:56:52.279Z,25.7
2023-04-17T20:02:48.279Z,25.7
2023-04-17T20:08:10.262Z,25.6
2023-04-17T20:14:02.485Z,25.4
2023-04-17T20:19:38.872Z,25.2
2023-04-17T20:25:32.945Z,24.9
2023-04-17T20:31:25.599Z,24.8
2023-04-17T20:37:17.358Z,23.3
2023-04-17T20:42:38.222Z,24.7
2023-04-17T20:48:44.547Z,25.7
2023-04-17T20:54:35.299Z,25.8
2023-04-17T21:00:26.031Z,25.8
2023-04-17T21:06:17.827Z,25.6
2023-04-17T21:11:53.997Z,25.4
2023-04-17T21:17:14.724Z,25.3
2023-04-17T21:22:51.375Z,25.1
2023-04-17T21:28:26.736Z,24.8
2023-04-17T21:34:03.090Z,23.3
2023-04-17T21:39:39.444Z,25.4
2023-04-17T21:45:33.112Z,25.9
2023-04-17T21:51:24.228Z,25.8
2023-04-17T21:57:16.486Z,25.8
2023-04-17T22:03:07.785Z,25.6
2023-04-17T22:08:55.119Z,25.4
2023-04-17T22:14:16.161Z,25.2
2023-04-17T22:20:07.997Z,24.9
2023-04-17T22:25:59.237Z,23.9
2023-04-17T22:31:36.081Z,24.3
2023-04-17T22:37:11.217Z,25.8
2023-04-17T22:43:02.347Z,26
2023-04-17T22:48:24.833Z,25.8
2023-04-17T22:54:05.829Z,25.8
2023-04-17T22:59:47.011Z,25.6
2023-04-17T23:05:40.686Z,25.4
2023-04-17T23:11:16.401Z,25.2
2023-04-17T23:16:37.043Z,24.9
2023-04-17T23:22:14.354Z,23.6
2023-04-17T23:27:40.031Z,24.8
2023-04-17T23:33:16.136Z,25.9
2023-04-17T23:38:52.900Z,25.9
2023-04-17T23:44:29.370Z,25.8
2023-04-17T23:50:21.290Z,25.7
2023-04-17T23:56:13.718Z,25.5
